Time,TemperatureF,DewpointF,PressureIn,WindDirection,WindDirectionDegrees,WindSpeedMPH,WindSpeedGustMPH,Humidity,HourlyPrecipIn,Conditions,Clouds,dailyrainin,SoftwareType,DateUTC
2013-11-15 00:02:00,53.6,4.0,29.84,West,276,2.7,3.6,13,0.00,,,0.00,VWS V14.01,2013-11-15 08:02:00,
2013-11-15 00:07:00,53.8,4.1,29.84,West,263,5.8,5.8,13,0.00,,,0.00,VWS V14.01,2013-11-15 08:07:00,
2013-11-15 00:12:00,54.0,4.2,29.84,North,353,4.9,4.9,13,0.00,,,0.00,VWS V14.01,2013-11-15 08:12:00,
2013-11-15 00:17:00,54.1,4.4,29.84,NW,305,3.6,3.6,13,0.00,,,0.00,VWS V14.01,2013-11-15 08:17:00,
2013-11-15 00:22:00,54.0,4.2,29.81,WNW,285,3.1,4.0,13,0.00,,,0.00,VWS V14.01,2013-11-15 08:22:00,
2013-11-15 00:27:00,54.0,4.2,29.81,NNW,329,3.6,5.4,13,0.00,,,0.00,VWS V14.01,2013-11-15 08:27:00,
2013-11-15 00:32:00,54.0,4.2,29.81,SW,225,3.1,3.6,13,0.00,,,0.00,VWS V14.01,2013-11-15 08:32:00,
2013-11-15 00:37:00,53.4,3.8,29.81,SW,216,0.0,2.7,13,0.00,,,0.00,VWS V14.01,2013-11-15 08:37:00,
2013-11-15 00:42:00,52.7,3.2,29.81,SSW,212,0.0,4.0,13,0.00,,,0.00,VWS V14.01,2013-11-15 08:42:00,
2013-11-15 00:47:00,51.8,2.5,29.81,WSW,240,0.0,0.0,13,0.00,,,0.00,VWS V14.01,2013-11-15 08:47:00,
2013-11-15 00:52:00,51.4,6.8,29.84,North,0,0.0,2.7,16,0.00,,,0.00,VWS V14.01,2013-11-15 08:52:00,
2013-11-15 00:57:00,50.9,6.3,29.84,WNW,283,0.0,0.0,16,0.00,,,0.00,VWS V14.01,2013-11-15 08:57:00,
2013-11-15 01:02:00,50.4,5.9,29.84,West,263,0.0,0.0,16,0.00,,,0.00,VWS V14.01,2013-11-15 09:02:00,
2013-11-15 01:07:00,50.2,5.7,29.81,West,263,0.0,0.0,16,0.00,,,0.00,VWS V14.01,2013-11-15 09:07:00,
2013-11-15 01:12:00,49.8,5.4,29.81,West,263,0.0,0.0,16,0.00,,,0.00,VWS V14.01,2013-11-15 09:12:00,
2013-11-15 01:17:00,49.5,8.9,29.81,West,263,0.0,0.0,19,0.00,,,0.00,VWS V14.01,2013-11-15 09:17:00,
2013-11-15 01:22:00,49.1,8.6,29.81,West,263,0.0,0.0,19,0.00,,,0.00,VWS V14.01,2013-11-15 09:22:00,
2013-11-15 01:27:00,48.9,8.5,29.81,ESE,118,0.0,0.0,19,0.00,,,0.00,VWS V14.01,2013-11-15 09:27:00,
2013-11-15 01:32:00,49.3,11.0,29.81,NW,319,0.0,0.0,21,0.00,,,0.00,VWS V14.01,2013-11-15 09:32:00,
2013-11-15 01:37:00,49.6,11.3,29.81,NW,319,0.0,0.0,21,0.00,,,0.00,VWS V14.01,2013-11-15 09:37:00,
2013-11-15 01:42:00,49.8,11.5,29.81,North,349,0.0,0.0,21,0.00,,,0.00,VWS V14.01,2013-11-15 09:42:00,
2013-11-15 01:47:00,50.0,11.6,29.81,North,349,0.0,0.0,21,0.00,,,0.00,VWS V14.01,2013-11-15 09:47:00,
2013-11-15 01:52:00,49.8,9.2,29.81,North,349,0.0,0.0,19,0.00,,,0.00,VWS V14.01,2013-11-15 09:52:00,
2013-11-15 01:57:00,49.6,9.1,29.81,North,349,0.0,0.0,19,0.00,,,0.00,VWS V14.01,2013-11-15 09:57:00,
2013-11-15 02:02:00,49.5,8.9,29.81,North,349,0.0,0.0,19,0.00,,,0.00,VWS V14.01,2013-11-15 10:02:00,
2013-11-15 02:07:00,49.1,8.6,29.81,North,349,0.0,0.0,19,0.00,,,0.00,VWS V14.01,2013-11-15 10:07:00,
2013-11-15 02:12:00,48.9,8.5,29.81,North,349,0.0,0.0,19,0.00,,,0.00,VWS V14.01,2013-11-15 10:12:00,
2013-11-15 02:17:00,49.1,8.6,29.81,NNW,343,0.0,0.0,19,0.00,,,0.00,VWS V14.01,2013-11-15 10:17:00,
2013-11-15 02:22:00,49.3,8.8,29.81,NNW,343,0.0,0.0,19,0.00,,,0.00,VWS V14.01,2013-11-15 10:22:00,
2013-11-15 02:27:00,48.9,8.5,29.81,East,85,2.7,3.1,19,0.00,,,0.00,VWS V14.01,2013-11-15 10:27:00,
2013-11-15 02:32:00,48.9,10.7,29.81,East,86,0.0,0.0,21,0.00,,,0.00,VWS V14.01,2013-11-15 10:32:00,
2013-11-15 02:37:00,49.3,11.0,29.81,North,357,0.0,0.0,21,0.00,,,0.00,VWS V14.01,2013-11-15 10:37:00,
2013-11-15 02:42:00,49.8,11.5,29.81,North,2,4.0,4.0,21,0.00,,,0.00,VWS V14.01,2013-11-15 10:42:00,
2013-11-15 02:47:00,50.2,9.5,29.81,North,1,3.1,3.1,19,0.00,,,0.00,VWS V14.01,2013-11-15 10:47:00,
2013-11-15 02:52:00,50.2,9.5,29.81,North,357,2.7,3.1,19,0.00,,,0.00,VWS V14.01,2013-11-15 10:52:00,
2013-11-15 02:57:00,50.4,9.7,29.81,NNE,16,3.1,3.1,19,0.00,,,0.00,VWS V14.01,2013-11-15 10:57:00,
2013-11-15 03:02:00,50.4,9.7,29.81,North,0,4.0,4.0,19,0.00,,,0.00,VWS V14.01,2013-11-15 11:02:00,
2013-11-15 03:07:00,50.4,9.7,29.81,NNE,28,4.9,4.9,19,0.00,,,0.00,VWS V14.01,2013-11-15 11:07:00,
2013-11-15 03:12:00,50.4,9.7,29.81,North,357,3.6,4.9,19,0.00,,,0.00,VWS V14.01,2013-11-15 11:12:00,
2013-11-15 03:17:00,50.2,9.5,29.81,NNW,340,4.9,4.9,19,0.00,,,0.00,VWS V14.01,2013-11-15 11:17:00,
2013-11-15 03:22:00,50.2,9.5,29.78,North,7,0.0,0.0,19,0.00,,,0.00,VWS V14.01,2013-11-15 11:22:00,
2013-11-15 03:27:00,50.0,9.4,29.78,North,4,3.6,4.0,19,0.00,,,0.00,VWS V14.01,2013-11-15 11:27:00,
2013-11-15 03:32:00,50.0,9.4,29.78,North,11,4.0,4.0,19,0.00,,,0.00,VWS V14.01,2013-11-15 11:32:00,
2013-11-15 03:37:00,49.8,9.2,29.78,North,357,2.7,2.7,19,0.00,,,0.00,VWS V14.01,2013-11-15 11:37:00,
2013-11-15 03:42:00,49.6,9.1,29.78,NNE,18,2.7,2.7,19,0.00,,,0.00,VWS V14.01,2013-11-15 11:42:00,
2013-11-15 03:47:00,49.5,8.9,29.78,North,350,0.0,0.0,19,0.00,,,0.00,VWS V14.01,2013-11-15 11:47:00,
2013-11-15 03:52:00,49.3,8.8,29.81,NNE,18,2.7,2.7,19,0.00,,,0.00,VWS V14.01,2013-11-15 11:52:00,
2013-11-15 03:57:00,49.3,8.8,29.81,North,7,0.0,0.0,19,0.00,,,0.00,VWS V14.01,2013-11-15 11:57:00,
2013-11-15 04:02:00,49.1,10.9,29.81,North,7,0.0,0.0,21,0.00,,,0.00,VWS V14.01,2013-11-15 12:02:00,
2013-11-15 04:07:00,48.9,10.7,29.81,North,7,0.0,0.0,21,0.00,,,0.00,VWS V14.01,2013-11-15 12:07:00,
2013-11-15 04:12:00,48.9,10.7,29.81,North,357,2.7,2.7,21,0.00,,,0.00,VWS V14.01,2013-11-15 12:12:00,
2013-11-15 04:17:00,48.9,10.7,29.81,North,10,0.0,2.2,21,0.00,,,0.00,VWS V14.01,2013-11-15 12:17:00,
2013-11-15 04:22:00,48.7,10.6,29.78,North,10,0.0,0.0,21,0.00,,,0.00,VWS V14.01,2013-11-15 12:22:00,
2013-11-15 04:27:00,48.7,13.6,29.78,North,10,0.0,0.0,24,0.00,,,0.00,VWS V14.01,2013-11-15 12:27:00,
2013-11-15 04:32:00,48.6,13.4,29.78,North,357,2.7,2.7,24,0.00,,,0.00,VWS V14.01,2013-11-15 12:32:00,
2013-11-15 04:37:00,48.6,13.4,29.78,NNE,19,0.0,0.0,24,0.00,,,0.00,VWS V14.01,2013-11-15 12:37:00,
2013-11-15 04:42:00,48.7,13.6,29.78,North,357,0.0,2.7,24,0.00,,,0.00,VWS V14.01,2013-11-15 12:42:00,
2013-11-15 04:47:00,48.7,15.4,29.78,NNE,16,2.7,3.6,26,0.00,,,0.00,VWS V14.01,2013-11-15 12:47:00,
2013-11-15 04:52:00,48.9,15.6,29.78,NNE,13,0.0,0.0,26,0.00,,,0.00,VWS V14.01,2013-11-15 12:52:00,
2013-11-15 04:57:00,48.7,15.4,29.78,NNE,18,0.0,2.2,26,0.00,,,0.00,VWS V14.01,2013-11-15 12:57:00,
2013-11-15 05:02:00,48.7,15.4,29.78,NE,37,2.2,3.6,26,0.00,,,0.00,VWS V14.01,2013-11-15 13:02:00,
2013-11-15 05:07:00,48.6,15.2,29.78,NNE,13,2.2,2.2,26,0.00,,,0.00,VWS V14.01,2013-11-15 13:07:00,
2013-11-15 05:12:00,48.6,15.2,29.78,North,6,2.7,3.6,26,0.00,,,0.00,VWS V14.01,2013-11-15 13:12:00,
2013-11-15 05:17:00,48.6,15.2,29.78,NNE,16,0.0,3.1,26,0.00,,,0.00,VWS V14.01,2013-11-15 13:17:00,
2013-11-15 05:22:00,48.6,15.2,29.78,NE,38,3.1,4.0,26,0.00,,,0.00,VWS V14.01,2013-11-15 13:22:00,
2013-11-15 05:27:00,48.4,15.1,29.78,NNE,20,2.7,3.6,26,0.00,,,0.00,VWS V14.01,2013-11-15 13:27:00,
2013-11-15 05:32:00,48.2,14.9,29.78,NNE,19,0.0,2.7,26,0.00,,,0.00,VWS V14.01,2013-11-15 13:32:00,
2013-11-15 05:37:00,48.0,15.6,29.78,NNE,19,0.0,2.7,27,0.00,,,0.00,VWS V14.01,2013-11-15 13:37:00,
2013-11-15 05:42:00,48.0,15.6,29.78,NNE,18,0.0,0.0,27,0.00,,,0.00,VWS V14.01,2013-11-15 13:42:00,
2013-11-15 05:47:00,47.8,15.5,29.78,NNE,18,2.2,2.2,27,0.00,,,0.00,VWS V14.01,2013-11-15 13:47:00,
2013-11-15 05:52:00,47.8,15.5,29.78,NNE,14,0.0,3.1,27,0.00,,,0.00,VWS V14.01,2013-11-15 13:52:00,
2013-11-15 05:57:00,47.8,15.5,29.78,NNE,14,0.0,2.7,27,0.00,,,0.00,VWS V14.01,2013-11-15 13:57:00,
2013-11-15 06:02:00,48.0,15.6,29.78,North,357,2.2,2.7,27,0.00,,,0.00,VWS V14.01,2013-11-15 14:02:00,
2013-11-15 06:07:00,48.2,15.8,29.78,North,357,3.1,3.6,27,0.00,,,0.00,VWS V14.01,2013-11-15 14:07:00,
2013-11-15 06:12:00,48.4,16.0,29.78,North,11,0.0,0.0,27,0.00,,,0.00,VWS V14.01,2013-11-15 14:12:00,
2013-11-15 06:17:00,48.4,16.0,29.78,NNE,12,0.0,0.0,27,0.00,,,0.00,VWS V14.01,2013-11-15 14:17:00,
2013-11-15 06:22:00,48.4,16.0,29.78,NNE,12,0.0,0.0,27,0.00,,,0.00,VWS V14.01,2013-11-15 14:22:00,
2013-11-15 06:27:00,48.2,15.8,29.78,NNE,12,0.0,0.0,27,0.00,,,0.00,VWS V14.01,2013-11-15 14:27:00,
2013-11-15 06:32:00,48.0,15.6,29.78,NNE,12,0.0,0.0,27,0.00,,,0.00,VWS V14.01,2013-11-15 14:32:00,
2013-11-15 06:37:00,47.8,15.5,29.78,NNE,12,0.0,0.0,27,0.00,,,0.00,VWS V14.01,2013-11-15 14:37:00,
2013-11-15 06:42:00,47.7,15.3,29.78,NNE,12,0.0,0.0,27,0.00,,,0.00,VWS V14.01,2013-11-15 14:42:00,
2013-11-15 06:47:00,47.5,15.2,29.78,NNE,12,0.0,0.0,27,0.00,,,0.00,VWS V14.01,2013-11-15 14:47:00,
2013-11-15 06:52:00,47.5,15.2,29.81,NNE,12,0.0,0.0,27,0.00,,,0.00,VWS V14.01,2013-11-15 14:52:00,
2013-11-15 06:57:00,47.5,15.2,29.81,NNE,12,0.0,2.2,27,0.00,,,0.00,VWS V14.01,2013-11-15 14:57:00,
2013-11-15 07:02:00,47.7,15.3,29.81,NNE,12,0.0,0.0,27,0.00,,,0.00,VWS V14.01,2013-11-15 15:02:00,
2013-11-15 07:07:00,47.8,15.5,29.78,North,357,3.1,3.1,27,0.00,,,0.00,VWS V14.01,2013-11-15 15:07:00,
2013-11-15 07:12:00,48.2,15.8,29.78,North,349,0.0,0.0,27,0.00,,,0.00,VWS V14.01,2013-11-15 15:12:00,
2013-11-15 07:17:00,48.4,16.0,29.78,NNW,330,0.0,0.0,27,0.00,,,0.00,VWS V14.01,2013-11-15 15:17:00,
2013-11-15 07:22:00,48.4,15.1,29.81,North,6,0.0,3.1,26,0.00,,,0.00,VWS V14.01,2013-11-15 15:22:00,
2013-11-15 07:27:00,48.4,15.1,29.81,NNE,30,0.0,2.7,26,0.00,,,0.00,VWS V14.01,2013-11-15 15:27:00,
2013-11-15 07:32:00,48.2,13.1,29.81,NNE,13,3.1,4.9,24,0.00,,,0.00,VWS V14.01,2013-11-15 15:32:00,
2013-11-15 07:37:00,48.2,13.1,29.81,NNE,14,2.7,5.8,24,0.00,,,0.00,VWS V14.01,2013-11-15 15:37:00,
2013-11-15 07:42:00,48.4,13.3,29.81,North,11,3.6,3.6,24,0.00,,,0.00,VWS V14.01,2013-11-15 15:42:00,
2013-11-15 07:47:00,48.6,13.4,29.81,North,357,2.2,4.0,24,0.00,,,0.00,VWS V14.01,2013-11-15 15:47:00,
2013-11-15 07:52:00,48.7,13.6,29.81,NE,35,3.6,3.6,24,0.00,,,0.00,VWS V14.01,2013-11-15 15:52:00,
2013-11-15 07:57:00,48.9,13.7,29.81,North,0,4.9,5.8,24,0.00,,,0.00,VWS V14.01,2013-11-15 15:57:00,
2013-11-15 08:02:00,49.3,14.0,29.81,NNE,29,2.7,2.7,24,0.00,,,0.00,VWS V14.01,2013-11-15 16:02:00,
2013-11-15 08:07:00,49.6,11.3,29.81,NNE,12,0.0,3.1,21,0.00,,,0.00,VWS V14.01,2013-11-15 16:07:00,
2013-11-15 08:12:00,50.0,11.6,29.81,North,11,3.1,6.3,21,0.00,,,0.00,VWS V14.01,2013-11-15 16:12:00,
2013-11-15 08:17:00,50.5,12.1,29.81,NNE,20,3.6,4.9,21,0.00,,,0.00,VWS V14.01,2013-11-15 16:17:00,
2013-11-15 08:22:00,50.9,10.1,29.78,North,353,2.7,2.7,19,0.00,,,0.00,VWS V14.01,2013-11-15 16:22:00,
2013-11-15 08:27:00,51.4,10.6,29.78,North,11,5.4,5.8,19,0.00,,,0.00,VWS V14.01,2013-11-15 16:27:00,
2013-11-15 08:32:00,51.6,6.9,29.78,North,10,3.1,4.0,16,0.00,,,0.00,VWS V14.01,2013-11-15 16:32:00,
2013-11-15 08:37:00,51.8,7.1,29.78,NNE,16,3.6,4.0,16,0.00,,,0.00,VWS V14.01,2013-11-15 16:37:00,
2013-11-15 08:43:00,52.0,7.2,29.78,NNE,33,4.0,5.8,16,0.00,,,0.00,VWS V14.01,2013-11-15 16:43:00,
2013-11-15 08:48:00,52.2,7.3,29.78,NW,306,4.9,6.3,16,0.00,,,0.00,VWS V14.01,2013-11-15 16:48:00,
2013-11-15 08:53:00,52.3,7.5,29.78,North,6,5.8,8.1,16,0.00,,,0.00,VWS V14.01,2013-11-15 16:53:00,
2013-11-15 08:58:00,52.5,7.6,29.78,NNE,33,5.8,6.3,16,0.00,,,0.00,VWS V14.01,2013-11-15 16:58:00,
2013-11-15 09:03:00,52.9,7.9,29.78,NW,321,3.1,5.8,16,0.00,,,0.00,VWS V14.01,2013-11-15 17:03:00,
2013-11-15 09:08:00,53.2,8.2,29.81,NW,324,4.0,4.0,16,0.00,,,0.00,VWS V14.01,2013-11-15 17:08:00,
2013-11-15 09:13:00,53.6,7.1,29.81,North,0,3.6,5.8,15,0.00,,,0.00,VWS V14.01,2013-11-15 17:13:00,
2013-11-15 09:18:00,54.0,7.4,29.81,WSW,252,3.1,3.6,15,0.00,,,0.00,VWS V14.01,2013-11-15 17:18:00,
2013-11-15 09:23:00,54.1,4.4,29.81,NNW,340,2.2,5.4,13,0.00,,,0.00,VWS V14.01,2013-11-15 17:23:00,
2013-11-15 09:28:00,54.5,4.7,29.81,North,6,3.1,3.1,13,0.00,,,0.00,VWS V14.01,2013-11-15 17:28:00,
2013-11-15 09:33:00,54.9,5.0,29.81,NNW,336,2.2,3.1,13,0.00,,,0.00,VWS V14.01,2013-11-15 17:33:00,
2013-11-15 09:38:00,55.0,5.1,29.81,West,280,5.4,5.8,13,0.00,,,0.00,VWS V14.01,2013-11-15 17:38:00,
2013-11-15 09:43:00,55.0,5.1,29.81,WNW,292,2.2,3.1,13,0.00,,,0.00,VWS V14.01,2013-11-15 17:43:00,
2013-11-15 09:48:00,55.8,3.9,29.81,NNW,346,0.0,0.0,12,0.00,,,0.00,VWS V14.01,2013-11-15 17:48:00,
2013-11-15 09:53:00,56.3,4.4,29.78,NNE,18,0.0,2.2,12,0.00,,,0.00,VWS V14.01,2013-11-15 17:53:00,
2013-11-15 09:58:00,56.8,4.8,29.78,WNW,285,2.2,2.2,12,0.00,,,0.00,VWS V14.01,2013-11-15 17:58:00,
2013-11-15 10:03:00,57.0,4.9,29.78,SW,234,0.0,4.0,12,0.00,,,0.00,VWS V14.01,2013-11-15 18:03:00,
2013-11-15 10:08:00,57.6,5.3,29.78,NNE,32,2.7,3.1,12,0.00,,,0.00,VWS V14.01,2013-11-15 18:08:00,
2013-11-15 10:13:00,57.9,5.6,29.78,WNW,288,0.0,2.7,12,0.00,,,0.00,VWS V14.01,2013-11-15 18:13:00,
2013-11-15 10:18:00,58.5,6.1,29.78,ENE,57,0.0,2.7,12,0.00,,,0.00,VWS V14.01,2013-11-15 18:18:00,
2013-11-15 10:23:00,59.0,6.5,29.78,North,357,2.2,4.0,12,0.00,,,0.00,VWS V14.01,2013-11-15 18:23:00,
2013-11-15 10:28:00,59.2,6.6,29.78,NNE,22,0.0,3.1,12,0.00,,,0.00,VWS V14.01,2013-11-15 18:28:00,
2013-11-15 10:33:00,59.4,6.8,29.78,West,277,3.6,3.6,12,0.00,,,0.00,VWS V14.01,2013-11-15 18:33:00,
2013-11-15 10:38:00,59.4,6.8,29.78,WNW,294,2.7,2.7,12,0.00,,,0.00,VWS V14.01,2013-11-15 18:38:00,
2013-11-15 10:43:00,59.9,7.2,29.78,North,357,3.6,3.6,12,0.00,,,0.00,VWS V14.01,2013-11-15 18:43:00,
2013-11-15 10:48:00,59.7,7.0,29.78,WSW,252,3.6,4.9,12,0.00,,,0.00,VWS V14.01,2013-11-15 18:48:00,
2013-11-15 10:53:00,59.2,6.6,29.78,WNW,286,2.7,3.1,12,0.00,,,0.00,VWS V14.01,2013-11-15 18:53:00,
2013-11-15 10:58:00,59.2,6.6,29.78,WNW,302,2.7,2.7,12,0.00,,,0.00,VWS V14.01,2013-11-15 18:58:00,
2013-11-15 11:03:00,59.5,6.9,29.78,SW,222,3.1,3.6,12,0.00,,,0.00,VWS V14.01,2013-11-15 19:03:00,
2013-11-15 11:08:00,59.9,7.2,29.75,West,273,2.7,2.7,12,0.00,,,0.00,VWS V14.01,2013-11-15 19:08:00,
2013-11-15 11:13:00,60.4,7.6,29.75,West,271,2.7,4.9,12,0.00,,,0.00,VWS V14.01,2013-11-15 19:13:00,
2013-11-15 11:18:00,60.1,7.3,29.75,SSW,203,2.7,3.1,12,0.00,,,0.00,VWS V14.01,2013-11-15 19:18:00,
2013-11-15 11:23:00,60.1,7.3,29.78,West,260,2.2,2.2,12,0.00,,,0.00,VWS V14.01,2013-11-15 19:23:00,
2013-11-15 11:28:00,60.1,7.3,29.78,North,0,2.7,4.9,12,0.00,,,0.00,VWS V14.01,2013-11-15 19:28:00,
2013-11-15 11:33:00,60.3,7.5,29.78,SSW,208,3.6,3.6,12,0.00,,,0.00,VWS V14.01,2013-11-15 19:33:00,
2013-11-15 11:38:00,60.4,7.6,29.75,SSW,213,2.7,3.1,12,0.00,,,0.00,VWS V14.01,2013-11-15 19:38:00,
2013-11-15 11:43:00,60.6,7.8,29.75,West,279,4.0,4.0,12,0.00,,,0.00,VWS V14.01,2013-11-15 19:43:00,
2013-11-15 11:48:00,60.1,7.3,29.75,WSW,256,3.1,3.1,12,0.00,,,0.00,VWS V14.01,2013-11-15 19:48:00,
2013-11-15 11:53:00,60.1,7.3,29.75,SSW,200,2.7,4.0,12,0.00,,,0.00,VWS V14.01,2013-11-15 19:53:00,
2013-11-15 11:58:00,60.3,7.5,29.75,SW,226,2.7,2.7,12,0.00,,,0.00,VWS V14.01,2013-11-15 19:58:00,
2013-11-15 12:03:00,60.6,7.8,29.75,SW,226,3.1,3.1,12,0.00,,,0.00,VWS V14.01,2013-11-15 20:03:00,
2013-11-15 12:08:00,60.6,7.8,29.75,SSW,204,4.0,4.0,12,0.00,,,0.00,VWS V14.01,2013-11-15 20:08:00,
2013-11-15 12:13:00,61.0,6.1,29.75,WSW,250,2.7,2.7,11,0.00,,,0.00,VWS V14.01,2013-11-15 20:13:00,
2013-11-15 12:18:00,61.0,6.1,29.75,SW,222,3.1,3.6,11,0.00,,,0.00,VWS V14.01,2013-11-15 20:18:00,
2013-11-15 12:23:00,61.2,6.3,29.75,West,267,3.6,3.6,11,0.00,,,0.00,VWS V14.01,2013-11-15 20:23:00,
2013-11-15 12:28:00,61.5,6.5,29.75,SSW,211,4.0,4.0,11,0.00,,,0.00,VWS V14.01,2013-11-15 20:28:00,
2013-11-15 12:33:00,61.5,6.5,29.75,SW,230,2.2,3.6,11,0.00,,,0.00,VWS V14.01,2013-11-15 20:33:00,
2013-11-15 12:38:00,61.9,6.8,29.72,WSW,258,3.6,4.0,11,0.00,,,0.00,VWS V14.01,2013-11-15 20:38:00,
2013-11-15 12:43:00,61.7,6.7,29.72,SSW,207,4.0,4.0,11,0.00,,,0.00,VWS V14.01,2013-11-15 20:43:00,
2013-11-15 12:48:00,61.5,6.5,29.72,West,281,3.1,4.0,11,0.00,,,0.00,VWS V14.01,2013-11-15 20:48:00,
2013-11-15 12:53:00,61.3,6.4,29.72,SW,223,2.2,3.6,11,0.00,,,0.00,VWS V14.01,2013-11-15 20:53:00,
2013-11-15 12:58:00,61.3,6.4,29.72,SSW,192,5.8,5.8,11,0.00,,,0.00,VWS V14.01,2013-11-15 20:58:00,
2013-11-15 13:03:00,61.0,6.1,29.72,South,170,5.4,5.4,11,0.00,,,0.00,VWS V14.01,2013-11-15 21:03:00,
2013-11-15 13:08:00,61.0,6.1,29.72,WSW,244,3.1,4.0,11,0.00,,,0.00,VWS V14.01,2013-11-15 21:08:00,
2013-11-15 13:13:00,61.0,6.1,29.72,WSW,247,3.1,5.8,11,0.00,,,0.00,VWS V14.01,2013-11-15 21:13:00,
2013-11-15 13:18:00,60.8,6.0,29.72,SW,216,4.0,4.0,11,0.00,,,0.00,VWS V14.01,2013-11-15 21:18:00,
2013-11-15 13:23:00,61.0,6.1,29.72,SW,222,4.0,4.0,11,0.00,,,0.00,VWS V14.01,2013-11-15 21:23:00,
2013-11-15 13:28:00,61.2,6.3,29.72,West,263,3.1,3.6,11,0.00,,,0.00,VWS V14.01,2013-11-15 21:28:00,
2013-11-15 13:33:00,61.7,6.7,29.72,WSW,242,2.7,2.7,11,0.00,,,0.00,VWS V14.01,2013-11-15 21:33:00,
2013-11-15 13:38:00,62.2,7.1,29.69,SSW,213,2.7,4.0,11,0.00,,,0.00,VWS V14.01,2013-11-15 21:38:00,
2013-11-15 13:43:00,62.2,7.1,29.69,WSW,255,3.6,5.8,11,0.00,,,0.00,VWS V14.01,2013-11-15 21:43:00,
2013-11-15 13:48:00,62.2,7.1,29.69,West,261,6.3,6.3,11,0.00,,,0.00,VWS V14.01,2013-11-15 21:48:00,
2013-11-15 13:53:00,62.1,7.0,29.72,SSW,203,2.7,3.1,11,0.00,,,0.00,VWS V14.01,2013-11-15 21:53:00,
2013-11-15 13:58:00,62.2,7.1,29.72,SSW,212,6.3,6.3,11,0.00,,,0.00,VWS V14.01,2013-11-15 21:58:00,
2013-11-15 14:03:00,62.4,7.2,29.72,SW,235,2.7,3.1,11,0.00,,,0.00,VWS V14.01,2013-11-15 22:03:00,
2013-11-15 14:08:00,62.1,7.0,29.72,SW,223,3.6,4.9,11,0.00,,,0.00,VWS V14.01,2013-11-15 22:08:00,
2013-11-15 14:13:00,62.1,7.0,29.72,South,172,3.1,5.4,11,0.00,,,0.00,VWS V14.01,2013-11-15 22:13:00,
2013-11-15 14:18:00,62.2,7.1,29.72,SW,225,5.4,5.8,11,0.00,,,0.00,VWS V14.01,2013-11-15 22:18:00,
2013-11-15 14:23:00,62.1,7.0,29.72,SSW,213,4.0,5.4,11,0.00,,,0.00,VWS V14.01,2013-11-15 22:23:00,
2013-11-15 14:28:00,62.2,7.1,29.72,WSW,249,4.9,4.9,11,0.00,,,0.00,VWS V14.01,2013-11-15 22:28:00,
2013-11-15 14:33:00,62.1,7.0,29.72,SSW,196,2.2,3.1,11,0.00,,,0.00,VWS V14.01,2013-11-15 22:33:00,
2013-11-15 14:38:00,62.4,7.2,29.69,SW,219,3.1,3.1,11,0.00,,,0.00,VWS V14.01,2013-11-15 22:38:00,
2013-11-15 14:43:00,62.2,7.1,29.69,South,172,4.0,4.9,11,0.00,,,0.00,VWS V14.01,2013-11-15 22:43:00,
2013-11-15 14:48:00,62.1,7.0,29.69,SSW,208,3.1,5.8,11,0.00,,,0.00,VWS V14.01,2013-11-15 22:48:00,
2013-11-15 14:53:00,62.1,7.0,29.69,SSW,194,3.6,5.4,11,0.00,,,0.00,VWS V14.01,2013-11-15 22:53:00,
2013-11-15 14:58:00,61.9,6.8,29.69,SW,230,4.9,5.4,11,0.00,,,0.00,VWS V14.01,2013-11-15 22:58:00,
2013-11-15 15:03:00,61.7,6.7,29.69,SE,134,3.6,3.6,11,0.00,,,0.00,VWS V14.01,2013-11-15 23:03:00,
2013-11-15 15:08:00,61.7,6.7,29.69,SSE,164,4.0,4.0,11,0.00,,,0.00,VWS V14.01,2013-11-15 23:08:00,
2013-11-15 15:13:00,61.3,6.4,29.69,SSW,198,5.8,7.6,11,0.00,,,0.00,VWS V14.01,2013-11-15 23:13:00,
2013-11-15 15:18:00,61.3,6.4,29.69,SSW,203,4.0,4.9,11,0.00,,,0.00,VWS V14.01,2013-11-15 23:18:00,
2013-11-15 15:23:00,61.5,6.5,29.69,SW,216,4.0,4.0,11,0.00,,,0.00,VWS V14.01,2013-11-15 23:23:00,
2013-11-15 15:28:00,61.5,6.5,29.69,SW,222,2.7,4.9,11,0.00,,,0.00,VWS V14.01,2013-11-15 23:28:00,
2013-11-15 15:33:00,61.3,6.4,29.69,SSW,206,4.9,4.9,11,0.00,,,0.00,VWS V14.01,2013-11-15 23:33:00,
2013-11-15 15:38:00,61.3,6.4,29.69,East,94,3.1,4.0,11,0.00,,,0.00,VWS V14.01,2013-11-15 23:38:00,
2013-11-15 15:43:00,61.2,6.3,29.69,WSW,240,2.7,4.0,11,0.00,,,0.00,VWS V14.01,2013-11-15 23:43:00,
2013-11-15 15:48:00,60.8,6.0,29.69,SSW,205,2.2,4.9,11,0.00,,,0.00,VWS V14.01,2013-11-15 23:48:00,
2013-11-15 15:53:00,60.8,6.0,29.69,SW,217,3.6,5.4,11,0.00,,,0.00,VWS V14.01,2013-11-15 23:53:00,
2013-11-15 15:58:00,60.6,7.8,29.69,SSW,201,5.4,5.4,12,0.00,,,0.00,VWS V14.01,2013-11-15 23:58:00,
2013-11-15 16:03:00,60.4,7.6,29.69,SSW,204,4.0,4.0,12,0.00,,,0.00,VWS V14.01,2013-11-16 00:03:00,
2013-11-15 16:08:00,60.3,7.5,29.69,SSW,195,2.7,3.6,12,0.00,,,0.00,VWS V14.01,2013-11-16 00:08:00,
2013-11-15 16:13:00,59.9,7.2,29.69,SE,128,0.0,3.6,12,0.00,,,0.00,VWS V14.01,2013-11-16 00:13:00,
2013-11-15 16:18:00,59.5,6.9,29.69,South,185,3.1,4.9,12,0.00,,,0.00,VWS V14.01,2013-11-16 00:18:00,
2013-11-15 16:23:00,59.2,6.6,29.69,SSW,207,3.6,4.0,12,0.00,,,0.00,VWS V14.01,2013-11-16 00:23:00,
2013-11-15 16:28:00,59.0,6.5,29.69,SSE,155,2.7,2.7,12,0.00,,,0.00,VWS V14.01,2013-11-16 00:28:00,
2013-11-15 16:33:00,58.6,6.2,29.69,South,180,2.7,3.1,12,0.00,,,0.00,VWS V14.01,2013-11-16 00:33:00,
2013-11-15 16:38:00,58.3,5.9,29.69,South,172,2.7,2.7,12,0.00,,,0.00,VWS V14.01,2013-11-16 00:38:00,
2013-11-15 16:43:00,58.1,5.8,29.69,SE,133,3.1,3.1,12,0.00,,,0.00,VWS V14.01,2013-11-16 00:43:00,
2013-11-15 16:48:00,57.6,5.3,29.69,SSW,199,0.0,2.7,12,0.00,,,0.00,VWS V14.01,2013-11-16 00:48:00,
2013-11-15 16:53:00,57.0,4.9,29.69,SSW,205,0.0,0.0,12,0.00,,,0.00,VWS V14.01,2013-11-16 00:53:00,
2013-11-15 16:58:00,56.5,4.5,29.69,South,172,0.0,0.0,12,0.00,,,0.00,VWS V14.01,2013-11-16 00:58:00,
2013-11-15 17:03:00,55.9,4.1,29.69,South,171,0.0,0.0,12,0.00,,,0.00,VWS V14.01,2013-11-16 01:03:00,
2013-11-15 17:08:00,55.6,3.8,29.66,South,173,0.0,0.0,12,0.00,,,0.00,VWS V14.01,2013-11-16 01:08:00,
2013-11-15 17:13:00,55.2,5.2,29.66,South,173,0.0,0.0,13,0.00,,,0.00,VWS V14.01,2013-11-16 01:13:00,
2013-11-15 17:18:00,54.7,4.8,29.66,South,173,0.0,0.0,13,0.00,,,0.00,VWS V14.01,2013-11-16 01:18:00,
2013-11-15 17:23:00,54.5,4.7,29.69,SSE,149,0.0,0.0,13,0.00,,,0.00,VWS V14.01,2013-11-16 01:23:00,
2013-11-15 17:28:00,54.3,4.5,29.69,SSE,149,0.0,0.0,13,0.00,,,0.00,VWS V14.01,2013-11-16 01:28:00,
2013-11-15 17:33:00,54.1,4.4,29.69,SSE,149,0.0,0.0,13,0.00,,,0.00,VWS V14.01,2013-11-16 01:33:00,
2013-11-15 17:38:00,54.0,4.2,29.69,SSE,150,0.0,0.0,13,0.00,,,0.00,VWS V14.01,2013-11-16 01:38:00,
2013-11-15 17:43:00,53.6,4.0,29.69,SSE,150,0.0,0.0,13,0.00,,,0.00,VWS V14.01,2013-11-16 01:43:00,
2013-11-15 17:48:00,53.2,3.7,29.69,SSE,149,0.0,0.0,13,0.00,,,0.00,VWS V14.01,2013-11-16 01:48:00,
2013-11-15 17:53:00,52.9,3.4,29.69,SSE,149,0.0,0.0,13,0.00,,,0.00,VWS V14.01,2013-11-16 01:53:00,
2013-11-15 17:58:00,52.5,3.1,29.69,SSE,149,0.0,0.0,13,0.00,,,0.00,VWS V14.01,2013-11-16 01:58:00,
2013-11-15 18:03:00,52.2,2.8,29.69,SSE,149,0.0,2.7,13,0.00,,,0.00,VWS V14.01,2013-11-16 02:03:00,
2013-11-15 18:08:00,52.2,2.8,29.69,SSE,149,0.0,0.0,13,0.00,,,0.00,VWS V14.01,2013-11-16 02:08:00,
2013-11-15 18:13:00,52.0,2.7,29.69,SSE,150,0.0,0.0,13,0.00,,,0.00,VWS V14.01,2013-11-16 02:13:00,
2013-11-15 18:18:00,52.0,2.7,29.69,SSE,153,0.0,3.1,13,0.00,,,0.00,VWS V14.01,2013-11-16 02:18:00,
2013-11-15 18:23:00,52.2,2.8,29.69,SE,137,0.0,2.7,13,0.00,,,0.00,VWS V14.01,2013-11-16 02:23:00,
2013-11-15 18:28:00,52.3,3.0,29.69,SSE,152,0.0,0.0,13,0.00,,,0.00,VWS V14.01,2013-11-16 02:28:00,
2013-11-15 18:33:00,52.2,2.8,29.69,SSE,152,0.0,0.0,13,0.00,,,0.00,VWS V14.01,2013-11-16 02:33:00,
2013-11-15 18:38:00,52.2,2.8,29.69,SSE,152,0.0,0.0,13,0.00,,,0.00,VWS V14.01,2013-11-16 02:38:00,
2013-11-15 18:43:00,52.0,2.7,29.69,SSE,152,0.0,0.0,13,0.00,,,0.00,VWS V14.01,2013-11-16 02:43:00,
2013-11-15 18:48:00,51.8,2.5,29.69,SSE,153,0.0,0.0,13,0.00,,,0.00,VWS V14.01,2013-11-16 02:48:00,
2013-11-15 18:53:00,51.6,4.0,29.69,SSE,153,0.0,0.0,14,0.00,,,0.00,VWS V14.01,2013-11-16 02:53:00,
2013-11-15 18:58:00,51.3,3.7,29.69,SSE,152,0.0,0.0,14,0.00,,,0.00,VWS V14.01,2013-11-16 02:58:00,
2013-11-15 19:03:00,51.1,3.6,29.69,SSE,152,0.0,0.0,14,0.00,,,0.00,VWS V14.01,2013-11-16 03:03:00,
2013-11-15 19:08:00,50.9,3.4,29.72,SSE,152,0.0,0.0,14,0.00,,,0.00,VWS V14.01,2013-11-16 03:08:00,
2013-11-15 19:13:00,50.5,3.1,29.72,SSE,152,0.0,0.0,14,0.00,,,0.00,VWS V14.01,2013-11-16 03:13:00,
2013-11-15 19:18:00,50.5,3.1,29.72,SSE,153,0.0,0.0,14,0.00,,,0.00,VWS V14.01,2013-11-16 03:18:00,
2013-11-15 19:23:00,50.4,5.9,29.72,SSE,153,0.0,0.0,16,0.00,,,0.00,VWS V14.01,2013-11-16 03:23:00,
2013-11-15 19:28:00,50.2,5.7,29.72,SSE,153,0.0,0.0,16,0.00,,,0.00,VWS V14.01,2013-11-16 03:28:00,
2013-11-15 19:33:00,50.2,5.7,29.72,SSE,152,0.0,0.0,16,0.00,,,0.00,VWS V14.01,2013-11-16 03:33:00,
2013-11-15 19:38:00,50.0,5.6,29.72,SSE,152,0.0,0.0,16,0.00,,,0.00,VWS V14.01,2013-11-16 03:38:00,
2013-11-15 19:43:00,49.8,5.4,29.72,SSE,152,0.0,0.0,16,0.00,,,0.00,VWS V14.01,2013-11-16 03:43:00,
2013-11-15 19:48:00,49.6,9.1,29.72,SSE,153,0.0,0.0,19,0.00,,,0.00,VWS V14.01,2013-11-16 03:48:00,
2013-11-15 19:53:00,49.6,9.1,29.72,SSE,152,0.0,0.0,19,0.00,,,0.00,VWS V14.01,2013-11-16 03:53:00,
2013-11-15 19:58:00,49.6,9.1,29.72,SSE,152,0.0,0.0,19,0.00,,,0.00,VWS V14.01,2013-11-16 03:58:00,
2013-11-15 20:03:00,49.5,8.9,29.72,SSE,152,0.0,0.0,19,0.00,,,0.00,VWS V14.01,2013-11-16 04:03:00,
2013-11-15 20:08:00,49.5,11.2,29.72,SSE,153,0.0,0.0,21,0.00,,,0.00,VWS V14.01,2013-11-16 04:08:00,
2013-11-15 20:13:00,49.3,11.0,29.72,SSE,152,3.1,3.1,21,0.00,,,0.00,VWS V14.01,2013-11-16 04:13:00,
2013-11-15 20:18:00,49.1,10.9,29.72,SSE,153,0.0,0.0,21,0.00,,,0.00,VWS V14.01,2013-11-16 04:18:00,
2013-11-15 20:23:00,49.1,10.9,29.72,SSE,152,0.0,0.0,21,0.00,,,0.00,VWS V14.01,2013-11-16 04:23:00,
2013-11-15 20:28:00,49.1,13.9,29.72,SSE,153,0.0,0.0,24,0.00,,,0.00,VWS V14.01,2013-11-16 04:28:00,
2013-11-15 20:33:00,49.3,14.0,29.72,SE,137,0.0,2.7,24,0.00,,,0.00,VWS V14.01,2013-11-16 04:33:00,
2013-11-15 20:38:00,49.6,16.2,29.72,SE,140,0.0,0.0,26,0.00,,,0.00,VWS V14.01,2013-11-16 04:38:00,
2013-11-15 20:43:00,50.0,16.5,29.72,SSE,150,0.0,0.0,26,0.00,,,0.00,VWS V14.01,2013-11-16 04:43:00,
2013-11-15 20:48:00,49.8,16.3,29.72,ESE,106,3.6,3.6,26,0.00,,,0.00,VWS V14.01,2013-11-16 04:48:00,
2013-11-15 20:53:00,49.8,16.3,29.72,ESE,109,0.0,0.0,26,0.00,,,0.00,VWS V14.01,2013-11-16 04:53:00,
2013-11-15 20:58:00,49.8,16.3,29.72,ESE,123,2.2,3.6,26,0.00,,,0.00,VWS V14.01,2013-11-16 04:58:00,
2013-11-15 21:01:00,50.0,16.5,29.72,SSE,160,4.0,4.0,26,0.00,,,0.00,VWS V14.01,2013-11-16 05:01:00,
2013-11-15 21:02:00,50.0,16.5,29.72,SE,131,3.6,3.6,26,0.00,,,0.00,VWS V14.01,2013-11-16 05:02:00,
2013-11-15 21:07:00,50.4,16.8,29.72,SE,143,0.0,0.0,26,0.00,,,0.00,VWS V14.01,2013-11-16 05:07:00,
2013-11-15 21:12:00,50.4,14.9,29.72,South,172,0.0,0.0,24,0.00,,,0.00,VWS V14.01,2013-11-16 05:12:00,
2013-11-15 21:17:00,50.2,14.8,29.72,South,172,0.0,0.0,24,0.00,,,0.00,VWS V14.01,2013-11-16 05:17:00,
2013-11-15 21:22:00,50.0,14.6,29.72,South,172,0.0,0.0,24,0.00,,,0.00,VWS V14.01,2013-11-16 05:22:00,
2013-11-15 21:27:00,49.8,14.5,29.72,South,172,0.0,0.0,24,0.00,,,0.00,VWS V14.01,2013-11-16 05:27:00,
2013-11-15 21:32:00,49.5,14.2,29.72,South,169,0.0,2.2,24,0.00,,,0.00,VWS V14.01,2013-11-16 05:32:00,
2013-11-15 21:37:00,49.3,14.0,29.72,SSE,168,0.0,0.0,24,0.00,,,0.00,VWS V14.01,2013-11-16 05:37:00,
2013-11-15 21:42:00,48.9,13.7,29.72,SSE,168,0.0,0.0,24,0.00,,,0.00,VWS V14.01,2013-11-16 05:42:00,
2013-11-15 21:47:00,48.6,13.4,29.72,SSE,168,0.0,0.0,24,0.00,,,0.00,VWS V14.01,2013-11-16 05:47:00,
2013-11-15 21:52:00,48.4,15.1,29.72,South,169,0.0,0.0,26,0.00,,,0.00,VWS V14.01,2013-11-16 05:52:00,
2013-11-15 21:57:00,48.4,15.1,29.72,SSE,168,0.0,0.0,26,0.00,,,0.00,VWS V14.01,2013-11-16 05:57:00,
2013-11-15 22:02:00,48.6,15.2,29.72,SSE,168,0.0,0.0,26,0.00,,,0.00,VWS V14.01,2013-11-16 06:02:00,
2013-11-15 22:07:00,48.6,15.2,29.72,SSE,168,0.0,0.0,26,0.00,,,0.00,VWS V14.01,2013-11-16 06:07:00,
2013-11-15 22:12:00,48.6,16.1,29.72,SSW,202,0.0,0.0,27,0.00,,,0.00,VWS V14.01,2013-11-16 06:12:00,
2013-11-15 22:17:00,48.4,16.0,29.72,SSE,163,0.0,0.0,27,0.00,,,0.00,VWS V14.01,2013-11-16 06:17:00,
2013-11-15 22:22:00,48.4,16.0,29.72,South,179,0.0,0.0,27,0.00,,,0.00,VWS V14.01,2013-11-16 06:22:00,
2013-11-15 22:27:00,48.4,16.0,29.72,ESE,111,0.0,0.0,27,0.00,,,0.00,VWS V14.01,2013-11-16 06:27:00,
2013-11-15 22:32:00,48.7,18.7,29.72,ESE,121,2.7,2.7,30,0.00,,,0.00,VWS V14.01,2013-11-16 06:32:00,
2013-11-15 22:37:00,48.9,20.4,29.72,SW,217,3.6,4.0,32,0.00,,,0.00,VWS V14.01,2013-11-16 06:37:00,
2013-11-15 22:42:00,48.9,22.5,29.72,SSW,193,2.7,2.7,35,0.00,,,0.00,VWS V14.01,2013-11-16 06:42:00,
2013-11-15 22:47:00,49.1,24.0,29.72,South,180,3.1,4.5,37,0.00,,,0.00,VWS V14.01,2013-11-16 06:47:00,
2013-11-15 22:52:00,49.1,24.0,29.72,SSW,206,3.6,3.6,37,0.00,,,0.00,VWS V14.01,2013-11-16 06:52:00,
2013-11-15 22:57:00,49.3,24.8,29.72,South,176,3.6,3.6,38,0.00,,,0.00,VWS V14.01,2013-11-16 06:57:00,
2013-11-15 23:02:00,49.3,25.4,29.72,SSW,202,2.7,4.5,39,0.00,,,0.00,VWS V14.01,2013-11-16 07:02:00,
2013-11-15 23:07:00,49.5,26.2,29.72,SSW,197,2.7,4.0,40,0.00,,,0.00,VWS V14.01,2013-11-16 07:07:00,
2013-11-15 23:12:00,49.5,26.2,29.72,SSE,155,3.6,3.6,40,0.00,,,0.00,VWS V14.01,2013-11-16 07:12:00,
2013-11-15 23:17:00,49.6,26.9,29.72,South,177,0.0,0.0,41,0.00,,,0.00,VWS V14.01,2013-11-16 07:17:00,
2013-11-15 23:22:00,49.6,27.5,29.72,WSW,249,2.2,2.7,42,0.00,,,0.00,VWS V14.01,2013-11-16 07:22:00,
2013-11-15 23:27:00,49.5,27.3,29.72,SW,215,2.2,2.2,42,0.00,,,0.00,VWS V14.01,2013-11-16 07:27:00,
2013-11-15 23:32:00,49.3,27.2,29.72,SSW,204,2.2,2.2,42,0.00,,,0.00,VWS V14.01,2013-11-16 07:32:00,
2013-11-15 23:37:00,49.1,27.0,29.75,South,173,0.0,0.0,42,0.00,,,0.00,VWS V14.01,2013-11-16 07:37:00,
2013-11-15 23:42:00,49.1,27.6,29.75,SSW,199,2.7,2.7,43,0.00,,,0.00,VWS V14.01,2013-11-16 07:42:00,
2013-11-15 23:47:00,49.1,27.6,29.75,SSE,163,0.0,0.0,43,0.00,,,0.00,VWS V14.01,2013-11-16 07:47:00,
2013-11-15 23:52:00,48.9,27.4,29.75,SSW,212,2.2,2.2,43,0.00,,,0.00,VWS V14.01,2013-11-16 07:52:00,
2013-11-15 23:57:00,48.7,27.8,29.75,South,180,0.0,0.0,44,0.00,,,0.00,VWS V14.01,2013-11-16 07:57:00,